Time;durP1;ratioP1;P1;durP2;ratioP2;P2;SDS_P1;SDS_P2;PMS_P1;PMS_P2;Temp;Humidity;BMP_temperature;BMP_pressure;BME280_temperature;BME280_humidity;BME280_pressure;Samples;Min_cycle;Max_cycle;Signal;HPM_P1;HPM_P2
2022/05/03 00:02:20;;;;;;;10.13;6.60;;;10.40;70.40;;;;;;4998142;28;20392;-77
2022/05/03 00:04:51;;;;;;;9.48;6.20;;;10.30;72.50;;;;;;4992230;28;20034;-77
2022/05/03 00:07:37;;;;;;;8.35;6.22;;;10.30;71.90;;;;;;4992594;28;20036;-77
2022/05/03 00:10:12;;;;;;;7.50;6.20;;;10.20;75.60;;;;;;5011203;28;20045;-77
2022/05/03 00:12:45;;;;;;;8.40;6.30;;;10.00;74.10;;;;;;4994335;28;20034;-77
2022/05/03 00:15:10;;;;;;;11.25;6.20;;;10.00;71.10;;;;;;4992665;28;20045;-77
2022/05/03 00:17:36;;;;;;;10.77;6.53;;;10.00;74.50;;;;;;4993245;28;20043;-77
2022/05/03 00:20:03;;;;;;;14.05;6.90;;;10.00;77.10;;;;;;4993705;28;20109;-77
2022/05/03 00:22:29;;;;;;;11.68;7.10;;;9.90;76.40;;;;;;5009860;28;20095;-76
2022/05/03 00:24:54;;;;;;;13.13;7.75;;;9.90;76.80;;;;;;4996543;28;20026;-77
2022/05/03 00:27:25;;;;;;;8.30;6.35;;;9.90;78.90;;;;;;4979930;28;20061;-77
2022/05/03 00:29:52;;;;;;;9.95;6.75;;;9.90;77.50;;;;;;4997242;28;20076;-77
2022/05/03 00:32:19;;;;;;;8.95;7.25;;;9.80;79.20;;;;;;4989516;28;20038;-77
2022/05/03 00:34:45;;;;;;;7.75;6.25;;;9.80;78.50;;;;;;4975188;28;20057;-77
2022/05/03 00:37:10;;;;;;;10.30;6.65;;;9.70;81.60;;;;;;4975118;28;20434;-77
2022/05/03 00:39:36;;;;;;;13.27;6.70;;;9.80;80.60;;;;;;4979153;28;20034;-77
2022/05/03 00:42:03;;;;;;;8.80;6.70;;;9.80;82.70;;;;;;4975963;28;20034;-77
2022/05/03 00:45:10;;;;;;;12.68;7.38;;;9.70;82.10;;;;;;4998746;28;20093;-77
2022/05/03 00:47:51;;;;;;;8.70;6.60;;;9.70;88.00;;;;;;4997415;28;20543;-77
2022/05/03 00:50:28;;;;;;;9.98;6.90;;;9.60;86.80;;;;;;4994838;28;20073;-77
2022/05/03 00:53:01;;;;;;;9.68;6.95;;;9.50;88.10;;;;;;4995325;28;20038;-76
2022/05/03 00:55:37;;;;;;;8.82;6.45;;;9.40;87.90;;;;;;4991808;28;20405;-76
2022/05/03 00:58:02;;;;;;;;;;;9.50;88.50;;;;;;4983019;28;20430;-76
2022/05/03 01:00:28;;;;;;;13.37;8.77;;;9.40;89.30;;;;;;4994146;28;20430;-76
2022/05/03 01:03:05;;;;;;;10.15;7.68;;;9.40;90.10;;;;;;4977855;28;20026;-77
2022/05/03 01:05:50;;;;;;;10.18;7.40;;;9.30;93.40;;;;;;4991595;28;20041;-77
2022/05/03 01:08:27;;;;;;;10.18;7.53;;;9.30;94.40;;;;;;4995573;28;20026;-76
2022/05/03 01:11:29;;;;;;;10.55;7.10;;;9.20;94.60;;;;;;4976944;28;20042;-76
2022/05/03 01:14:14;;;;;;;10.85;7.57;;;9.20;95.00;;;;;;4992912;28;20033;-76
2022/05/03 01:16:59;;;;;;;10.35;6.70;;;9.00;93.30;;;;;;5011246;28;20030;-76
2022/05/03 01:19:34;;;;;;;9.00;7.25;;;8.90;96.60;;;;;;4993907;28;20026;-76
2022/05/03 01:22:09;;;;;;;13.77;7.38;;;8.80;92.60;;;;;;4982525;28;20058;-77
2022/05/03 01:25:02;;;;;;;9.20;7.40;;;8.90;94.30;;;;;;5010643;28;20085;-77
2022/05/03 01:27:48;;;;;;;10.35;7.63;;;8.80;97.90;;;;;;4993801;28;20041;-76
2022/05/03 01:30:14;;;;;;;11.60;6.95;;;8.80;99.50;;;;;;4992665;28;20035;-76
2022/05/03 01:32:43;;;;;;;9.43;7.40;;;8.80;99.90;;;;;;4995564;28;20096;-77
2022/05/03 01:35:09;;;;;;;10.32;6.80;;;8.70;94.90;;;;;;4995540;28;20060;-76
2022/05/03 01:37:48;;;;;;;11.68;8.02;;;8.70;99.90;;;;;;4993389;28;20486;-76
2022/05/03 01:40:29;;;;;;;11.20;7.03;;;8.70;99.90;;;;;;4995417;28;20030;-76
2022/05/03 01:43:31;;;;;;;9.45;7.60;;;8.70;99.90;;;;;;4993768;28;20042;-76
2022/05/03 01:46:03;;;;;;;12.40;7.00;;;8.70;99.90;;;;;;4985688;28;20030;-76
2022/05/03 01:51:42;;;;;;;11.00;7.43;;;8.50;99.90;;;;;;4987795;28;20069;-76
2022/05/03 01:54:28;;;;;;;9.98;7.25;;;8.50;99.90;;;;;;4980789;28;20038;-76
2022/05/03 01:56:58;;;;;;;9.05;6.90;;;8.50;99.90;;;;;;4992981;28;20061;-76
2022/05/03 01:59:54;;;;;;;9.63;6.97;;;8.50;99.90;;;;;;4996498;28;20494;-76
2022/05/03 02:02:45;;;;;;;10.17;6.97;;;8.40;99.90;;;;;;4991453;28;20034;-76
2022/05/03 02:05:38;;;;;;;10.35;6.82;;;8.40;99.90;;;;;;4997957;28;20773;-76
2022/05/03 02:08:04;;;;;;;10.60;7.72;;;8.40;99.90;;;;;;4993206;28;20027;-76
2022/05/03 02:10:50;;;;;;;12.30;7.40;;;8.40;99.90;;;;;;4992504;28;20575;-76
2022/05/03 02:14:43;;;;;;;13.25;7.28;;;8.30;99.90;;;;;;4980423;28;20045;-76
2022/05/03 02:16:31;;;;;;;11.25;7.57;;;8.30;99.90;;;;;;4992880;28;20037;-76
2022/05/03 02:19:05;;;;;;;11.93;7.10;;;8.30;99.90;;;;;;4998851;28;20026;-76
2022/05/03 02:21:37;;;;;;;10.90;7.47;;;8.20;99.90;;;;;;4996232;28;20034;-76
2022/05/03 02:24:05;;;;;;;11.10;6.95;;;8.10;99.90;;;;;;4992134;28;20026;-76
2022/05/03 02:26:43;;;;;;;9.63;7.20;;;8.10;99.90;;;;;;5010092;28;20034;-76
2022/05/03 02:29:17;;;;;;;11.82;7.20;;;8.10;99.90;;;;;;4992811;28;20092;-76
2022/05/03 02:31:48;;;;;;;9.77;7.13;;;8.00;99.90;;;;;;4984766;28;20182;-76
2022/05/03 02:34:18;;;;;;;10.98;8.02;;;7.90;99.90;;;;;;4992949;28;20050;-76
2022/05/03 02:36:56;;;;;;;14.55;7.10;;;7.90;99.90;;;;;;4994837;28;20057;-76
2022/05/03 02:39:26;;;;;;;10.18;7.35;;;7.80;99.90;;;;;;4993292;28;20031;-76
2022/05/03 02:41:52;;;;;;;9.73;7.55;;;7.90;99.90;;;;;;4991924;28;20069;-76
2022/05/03 02:44:18;;;;;;;13.80;8.27;;;7.90;99.90;;;;;;4991105;28;20038;-76
2022/05/03 02:46:53;;;;;;;10.38;7.28;;;7.80;99.90;;;;;;4977210;28;20068;-77
2022/05/03 02:49:20;;;;;;;10.35;7.55;;;7.80;99.90;;;;;;4991212;28;20125;-76
2022/05/03 02:52:03;;;;;;;12.93;8.00;;;7.80;99.90;;;;;;4992263;28;20496;-76
2022/05/03 02:54:39;;;;;;;12.10;7.88;;;7.80;99.90;;;;;;4977892;28;20564;-76
2022/05/03 02:57:26;;;;;;;12.30;8.07;;;7.70;99.90;;;;;;5009450;28;20500;-76
2022/05/03 03:03:02;;;;;;;11.80;8.35;;;7.70;99.90;;;;;;4988692;28;20085;-76
2022/05/03 03:05:27;;;;;;;10.63;7.47;;;7.60;99.90;;;;;;4977306;28;20098;-76
2022/05/03 03:08:00;;;;;;;13.38;7.95;;;7.50;99.90;;;;;;4991559;28;20077;-76
2022/05/03 03:10:32;;;;;;;10.48;8.00;;;7.50;99.90;;;;;;4992555;28;20089;-76
2022/05/03 03:13:11;;;;;;;11.65;8.90;;;7.50;99.90;;;;;;4981614;28;20499;-76
2022/05/03 03:15:38;;;;;;;12.75;8.18;;;7.40;99.90;;;;;;5001383;28;20109;-76
2022/05/03 03:18:04;;;;;;;10.00;8.15;;;7.40;99.90;;;;;;4991111;28;20029;-76
2022/05/03 03:20:29;;;;;;;15.05;8.13;;;7.40;99.90;;;;;;4981207;28;20401;-76
2022/05/03 03:22:55;;;;;;;12.50;8.82;;;7.40;99.90;;;;;;4978256;28;20040;-76
2022/05/03 03:25:22;;;;;;;10.95;8.20;;;7.30;99.90;;;;;;4992214;28;20034;-76
2022/05/03 03:27:50;;;;;;;10.80;8.38;;;7.30;99.90;;;;;;4984449;28;20397;-76
2022/05/03 03:30:15;;;;;;;13.55;7.68;;;7.30;99.90;;;;;;4991230;28;20041;-76
2022/05/03 03:32:45;;;;;;;12.85;7.82;;;7.20;99.90;;;;;;4971102;28;20030;-76
2022/05/03 03:35:11;;;;;;;10.82;8.43;;;7.20;99.90;;;;;;4994841;28;20120;-76
2022/05/03 03:37:37;;;;;;;10.77;7.97;;;7.30;99.90;;;;;;4993157;28;20056;-76
2022/05/03 03:40:03;;;;;;;14.38;7.93;;;7.20;99.90;;;;;;4975053;28;20030;-76
2022/05/03 03:42:29;;;;;;;11.63;7.72;;;7.20;99.90;;;;;;4976717;28;20030;-76
2022/05/03 03:45:02;;;;;;;13.93;7.88;;;7.10;99.90;;;;;;4977856;28;20489;-76
2022/05/03 03:47:29;;;;;;;10.77;8.48;;;7.10;99.90;;;;;;4988616;28;20129;-76
2022/05/03 03:49:56;;;;;;;12.98;8.00;;;7.10;99.90;;;;;;4976961;28;20493;-76
2022/05/03 03:52:23;;;;;;;12.80;7.93;;;7.10;99.90;;;;;;4990251;28;20052;-76
2022/05/03 03:54:48;;;;;;;14.07;8.00;;;7.10;99.90;;;;;;4991437;28;20062;-76
2022/05/03 03:57:14;;;;;;;11.40;9.02;;;7.10;99.90;;;;;;4993801;28;20379;-76
2022/05/03 03:59:39;;;;;;;11.20;8.35;;;7.10;99.90;;;;;;5010648;28;20374;-76
2022/05/03 04:02:05;;;;;;;10.60;8.27;;;7.00;99.90;;;;;;4993541;28;20050;-76
2022/05/03 04:04:36;;;;;;;11.73;9.25;;;7.00;99.90;;;;;;5000029;28;20125;-76
2022/05/03 04:07:02;;;;;;;10.75;8.40;;;7.00;99.90;;;;;;4991028;28;20092;-76
2022/05/03 04:09:28;;;;;;;14.40;9.95;;;7.00;99.90;;;;;;4974376;28;20455;-76
2022/05/03 04:11:53;;;;;;;15.07;8.20;;;6.90;99.90;;;;;;4989947;28;20053;-76
2022/05/03 04:14:19;;;;;;;11.48;8.00;;;6.90;99.90;;;;;;4988257;28;20112;-76
2022/05/03 04:16:45;;;;;;;10.68;7.55;;;6.90;99.90;;;;;;5003854;28;20045;-76
2022/05/03 04:19:11;;;;;;;10.70;8.45;;;6.90;99.90;;;;;;4968055;28;20104;-76
2022/05/03 04:21:37;;;;;;;12.93;7.95;;;6.90;99.90;;;;;;4992137;28;20583;-76
2022/05/03 04:24:02;;;;;;;11.23;8.07;;;6.90;99.90;;;;;;4991415;28;20109;-76
2022/05/03 04:26:28;;;;;;;11.40;8.98;;;6.90;99.90;;;;;;4993868;28;20065;-76
2022/05/03 04:28:57;;;;;;;12.10;8.57;;;6.90;99.90;;;;;;5001765;28;20022;-76
2022/05/03 04:31:30;;;;;;;12.90;9.90;;;7.00;99.90;;;;;;4990166;28;20130;-76
2022/05/03 04:33:55;;;;;;;13.05;8.60;;;6.90;99.90;;;;;;5013129;28;20030;-77
2022/05/03 04:36:21;;;;;;;14.88;8.73;;;7.00;99.90;;;;;;4994917;28;20053;-76
2022/05/03 04:38:50;;;;;;;12.35;7.97;;;7.00;99.90;;;;;;4978342;28;20493;-76
2022/05/03 04:41:15;;;;;;;9.00;7.75;;;7.00;99.90;;;;;;4981026;28;20117;-76
2022/05/03 04:43:41;;;;;;;16.75;8.45;;;7.00;99.90;;;;;;4994021;28;20108;-76
2022/05/03 04:46:07;;;;;;;14.50;8.63;;;6.90;99.90;;;;;;4992922;28;20244;-77
2022/05/03 04:48:32;;;;;;;18.67;9.65;;;7.00;99.90;;;;;;4996846;28;20034;-76
2022/05/03 04:50:58;;;;;;;20.17;9.57;;;7.10;99.90;;;;;;4981678;28;20033;-76
2022/05/03 04:53:24;;;;;;;11.95;8.55;;;7.10;99.90;;;;;;5001456;28;20100;-76
2022/05/03 04:55:49;;;;;;;14.68;8.52;;;7.20;99.90;;;;;;4987952;28;20030;-76
2022/05/03 04:58:15;;;;;;;15.70;9.10;;;7.20;99.90;;;;;;4996467;28;20041;-76
2022/05/03 05:00:40;;;;;;;13.80;9.63;;;7.30;99.90;;;;;;4992584;28;20078;-76
2022/05/03 05:03:06;;;;;;;14.23;9.35;;;7.30;99.90;;;;;;4994233;28;20540;-76
2022/05/03 05:05:31;;;;;;;12.63;8.50;;;7.40;99.90;;;;;;4992057;28;20034;-77
2022/05/03 05:08:04;;;;;;;12.93;8.70;;;7.40;99.90;;;;;;4992703;28;20026;-76
2022/05/03 05:10:31;;;;;;;12.65;8.68;;;7.50;99.90;;;;;;4991408;28;20030;-76
2022/05/03 05:12:57;;;;;;;12.18;9.40;;;7.70;99.90;;;;;;4990807;28;20022;-76
2022/05/03 05:15:26;;;;;;;13.60;9.32;;;7.70;99.90;;;;;;4996216;28;20058;-76
2022/05/03 05:17:52;;;;;;;14.60;9.07;;;7.80;99.90;;;;;;4992032;28;20038;-76
2022/05/03 05:20:18;;;;;;;12.82;8.68;;;7.80;99.90;;;;;;4987631;28;20619;-77
2022/05/03 05:22:44;;;;;;;11.93;9.20;;;7.90;99.90;;;;;;4992282;28;20113;-76
2022/05/03 05:25:10;;;;;;;15.70;9.02;;;8.00;99.90;;;;;;4988675;28;20038;-76
2022/05/03 05:27:35;;;;;;;12.32;7.93;;;8.00;99.90;;;;;;4989768;28;20567;-76
2022/05/03 05:30:02;;;;;;;11.23;7.82;;;8.10;99.90;;;;;;4990037;28;20092;-76
2022/05/03 05:32:27;;;;;;;16.52;8.73;;;8.20;99.90;;;;;;4975826;28;20045;-76
2022/05/03 05:34:53;;;;;;;12.10;8.55;;;8.40;99.90;;;;;;4988716;28;20050;-77
2022/05/03 05:37:18;;;;;;;13.38;8.27;;;8.50;99.90;;;;;;5004918;28;20035;-76
2022/05/03 05:39:44;;;;;;;11.80;8.00;;;8.50;99.90;;;;;;4992813;28;20034;-76
2022/05/03 05:42:11;;;;;;;9.52;7.38;;;8.60;99.90;;;;;;4992775;28;20049;-76
2022/05/03 05:44:37;;;;;;;10.02;6.63;;;8.80;99.90;;;;;;4992884;28;20274;-76
2022/05/03 05:47:04;;;;;;;9.95;7.07;;;8.90;99.90;;;;;;5007015;28;20034;-77
2022/05/03 05:49:30;;;;;;;10.35;6.75;;;9.10;99.90;;;;;;5000019;28;20391;-76
2022/05/03 05:53:31;;;;;;;12.38;6.95;;;9.20;99.90;;;;;;4996740;28;20049;-76
2022/05/03 05:54:41;;;;;;;11.15;6.43;;;9.30;99.90;;;;;;5011479;28;20029;-76
2022/05/03 05:57:07;;;;;;;9.38;6.55;;;9.40;99.90;;;;;;4980458;28;20099;-76
2022/05/03 05:59:32;;;;;;;11.43;6.22;;;9.60;99.90;;;;;;4981917;28;20046;-76
2022/05/03 06:01:58;;;;;;;8.73;6.30;;;9.60;99.90;;;;;;4992873;28;20438;-76
2022/05/03 06:04:23;;;;;;;12.98;6.90;;;9.80;99.90;;;;;;4983387;28;20033;-77
2022/05/03 06:06:49;;;;;;;11.18;6.07;;;10.00;99.90;;;;;;4990823;28;20581;-76
2022/05/03 06:09:14;;;;;;;12.80;6.30;;;10.10;99.90;;;;;;4992943;28;20034;-76
2022/05/03 06:11:40;;;;;;;8.38;5.82;;;10.30;99.90;;;;;;5005184;28;20374;-76
2022/05/03 06:14:05;;;;;;;6.57;5.10;;;10.30;99.90;;;;;;4993782;28;20054;-76
2022/05/03 06:16:31;;;;;;;6.95;5.28;;;10.50;99.90;;;;;;4990255;28;20045;-76
2022/05/03 06:18:56;;;;;;;9.82;5.68;;;10.60;99.90;;;;;;4989613;28;20053;-76
2022/05/03 06:21:22;;;;;;;8.45;5.25;;;10.70;99.90;;;;;;4993654;28;20493;-76
2022/05/03 06:23:47;;;;;;;8.20;5.28;;;10.80;99.90;;;;;;4989214;28;20026;-77
2022/05/03 06:26:13;;;;;;;9.50;4.80;;;10.90;99.90;;;;;;5009068;28;20036;-76
2022/05/03 06:28:40;;;;;;;6.30;5.15;;;11.10;99.90;;;;;;4992608;28;20034;-76
2022/05/03 06:31:06;;;;;;;8.13;5.32;;;11.20;99.90;;;;;;4989044;28;20046;-76
2022/05/03 06:33:31;;;;;;;8.73;5.47;;;11.40;99.90;;;;;;4990274;28;20500;-76
2022/05/03 06:35:57;;;;;;;6.97;5.03;;;11.60;99.90;;;;;;4989924;28;20084;-76
2022/05/03 06:38:22;;;;;;;7.28;4.80;;;11.70;99.90;;;;;;4979145;28;20100;-76
2022/05/03 06:40:48;;;;;;;7.55;4.70;;;11.90;99.90;;;;;;4987868;28;20561;-77
2022/05/03 06:43:13;;;;;;;7.93;4.50;;;12.00;99.90;;;;;;4968694;28;20551;-77
2022/05/03 06:45:39;;;;;;;8.95;4.82;;;12.20;99.90;;;;;;4992054;28;20503;-77
2022/05/03 06:48:06;;;;;;;8.48;4.53;;;12.30;99.90;;;;;;5005153;28;20088;-76
2022/05/03 06:50:32;;;;;;;9.52;5.95;;;12.40;99.90;;;;;;5000828;28;20591;-77
2022/05/03 06:52:57;;;;;;;7.65;5.15;;;12.60;99.70;;;;;;4975991;28;20034;-77
2022/05/03 06:55:23;;;;;;;6.95;5.25;;;12.60;99.70;;;;;;5000942;28;20509;-77
2022/05/03 06:57:49;;;;;;;9.15;5.85;;;12.70;99.20;;;;;;4992879;28;20057;-77
2022/05/03 07:00:15;;;;;;;7.80;4.47;;;12.80;99.00;;;;;;4993785;28;20029;-77
2022/05/03 07:02:41;;;;;;;5.85;4.60;;;12.90;98.00;;;;;;4993469;28;20533;-77
2022/05/03 07:05:07;;;;;;;8.48;4.93;;;13.00;96.90;;;;;;4988017;28;20040;-77
2022/05/03 07:07:33;;;;;;;9.55;5.03;;;13.10;96.90;;;;;;4979898;28;20366;-76
2022/05/03 07:10:01;;;;;;;11.45;4.75;;;13.30;96.70;;;;;;4981479;28;20449;-77
2022/05/03 07:12:27;;;;;;;13.07;4.88;;;13.50;96.70;;;;;;4997383;28;20041;-77
2022/05/03 07:14:58;;;;;;;8.20;4.68;;;13.50;96.20;;;;;;4991194;28;20041;-77
2022/05/03 07:22:52;;;;;;;6.13;4.78;;;14.10;96.10;;;;;;5000994;28;20054;-77
2022/05/03 07:25:17;;;;;;;12.18;5.05;;;14.20;93.90;;;;;;4998491;28;20034;-77
2022/05/03 07:27:46;;;;;;;6.30;4.00;;;14.40;94.40;;;;;;4978427;28;20034;-77
2022/05/03 07:30:15;;;;;;;7.25;4.13;;;14.50;93.30;;;;;;4987406;28;20030;-77
2022/05/03 07:32:43;;;;;;;5.75;3.88;;;14.50;92.80;;;;;;4989830;28;20026;-77
2022/05/03 07:35:09;;;;;;;7.53;3.90;;;14.70;92.80;;;;;;4992830;28;20486;-77
2022/05/03 07:37:35;;;;;;;40.80;9.38;;;14.80;92.30;;;;;;5005804;28;20568;-77
2022/05/03 07:40:01;;;;;;;9.57;4.28;;;15.00;91.70;;;;;;4976580;28;20034;-77
2022/05/03 07:42:27;;;;;;;8.75;4.55;;;15.20;90.10;;;;;;4990737;28;20080;-76
2022/05/03 07:44:52;;;;;;;11.48;3.90;;;15.20;89.40;;;;;;4979269;28;20030;-77
2022/05/03 07:47:18;;;;;;;8.23;3.83;;;15.20;90.50;;;;;;4987770;28;20034;-77
2022/05/03 07:49:43;;;;;;;11.20;4.07;;;15.30;90.50;;;;;;4990728;28;20037;-77
2022/05/03 07:52:09;;;;;;;7.97;4.22;;;15.40;90.00;;;;;;4991175;28;20030;-77
2022/05/03 07:54:34;;;;;;;4.80;3.33;;;15.60;90.00;;;;;;4987551;28;20513;-77
2022/05/03 07:57:00;;;;;;;5.93;3.58;;;15.70;89.20;;;;;;4990051;28;20402;-77
2022/05/03 07:59:25;;;;;;;3.95;3.05;;;15.90;87.60;;;;;;4992735;28;20034;-77
2022/05/03 08:01:54;;;;;;;5.03;2.78;;;16.00;88.50;;;;;;4996226;28;20033;-77
2022/05/03 08:04:20;;;;;;;5.97;2.92;;;16.30;82.90;;;;;;4993383;28;20041;-77
2022/05/03 08:06:46;;;;;;;6.53;2.80;;;16.40;76.60;;;;;;4996330;28;20037;-77
2022/05/03 08:09:11;;;;;;;5.57;2.63;;;16.50;77.90;;;;;;5000265;28;20084;-77
2022/05/03 08:11:37;;;;;;;3.45;2.80;;;16.50;76.50;;;;;;4977746;28;20045;-77
2022/05/03 08:14:03;;;;;;;4.43;2.45;;;16.90;73.70;;;;;;4984935;28;20081;-77
2022/05/03 08:16:30;;;;;;;12.55;3.10;;;16.90;70.90;;;;;;4995350;28;20069;-77
2022/05/03 08:18:59;;;;;;;5.07;2.90;;;16.90;72.60;;;;;;4994474;28;20025;-78
2022/05/03 08:21:24;;;;;;;2.75;2.17;;;16.90;70.00;;;;;;5011830;28;20030;-77
2022/05/03 08:23:51;;;;;;;2.67;1.98;;;17.10;68.60;;;;;;4981504;28;20092;-77
2022/05/03 08:26:16;;;;;;;2.70;1.70;;;17.10;68.50;;;;;;4993411;28;20028;-78
2022/05/03 08:28:42;;;;;;;3.28;2.25;;;17.30;67.30;;;;;;4989078;28;20026;-78
2022/05/03 08:31:08;;;;;;;2.47;1.98;;;17.40;64.00;;;;;;4992853;28;20038;-78
2022/05/03 08:33:34;;;;;;;3.70;1.90;;;17.40;68.20;;;;;;4992810;28;20030;-78
2022/05/03 08:35:59;;;;;;;3.15;2.10;;;17.50;64.20;;;;;;4988610;28;20339;-78
2022/05/03 08:43:58;;;;;;;3.20;2.20;;;18.00;66.10;;;;;;4991685;28;20045;-78
2022/05/03 08:46:23;;;;;;;3.75;2.45;;;18.00;68.90;;;;;;4990991;28;20918;-77
2022/05/03 08:48:52;;;;;;;3.25;2.22;;;18.10;67.60;;;;;;4973880;28;20045;-77
2022/05/03 08:51:19;;;;;;;2.78;2.35;;;18.40;65.70;;;;;;4981073;28;20116;-77
2022/05/03 08:53:45;;;;;;;5.00;2.45;;;18.60;65.20;;;;;;4999978;28;20038;-78
2022/05/03 08:56:10;;;;;;;4.90;2.67;;;18.80;61.50;;;;;;5002277;28;20034;-78
2022/05/03 08:58:36;;;;;;;2.38;1.95;;;18.90;62.20;;;;;;4979594;28;20026;-78
2022/05/03 09:01:03;;;;;;;3.10;2.00;;;19.00;63.50;;;;;;4983064;28;20449;-78
2022/05/03 09:03:30;;;;;;;3.22;2.30;;;19.10;61.40;;;;;;4999069;28;20033;-78
2022/05/03 09:05:56;;;;;;;7.47;2.70;;;19.20;61.30;;;;;;4987549;28;20038;-78
2022/05/03 09:08:23;;;;;;;5.63;2.03;;;19.40;58.80;;;;;;4993191;28;20033;-78
2022/05/03 09:10:48;;;;;;;4.18;1.73;;;19.40;58.80;;;;;;4992632;28;20116;-78
2022/05/03 09:13:18;;;;;;;5.82;2.17;;;19.40;58.60;;;;;;4991051;28;20136;-78
2022/05/03 09:15:47;;;;;;;3.00;2.05;;;19.60;57.40;;;;;;5011953;28;20077;-77
2022/05/03 09:18:25;;;;;;;4.95;1.77;;;19.60;58.10;;;;;;4993870;28;20525;-78
2022/05/03 09:23:50;;;;;;;2.92;2.25;;;19.80;57.40;;;;;;4995137;28;20062;-78
2022/05/03 09:26:21;;;;;;;3.55;1.75;;;19.80;56.10;;;;;;4993373;28;20093;-78
2022/05/03 09:28:53;;;;;;;3.42;1.75;;;20.00;56.20;;;;;;4993773;28;20076;-78
2022/05/03 09:31:48;;;;;;;3.47;2.03;;;20.00;57.00;;;;;;5010537;28;20035;-78
2022/05/03 09:34:19;;;;;;;2.03;1.67;;;20.30;57.50;;;;;;4992313;28;20486;-78
2022/05/03 09:36:45;;;;;;;5.18;2.13;;;20.40;58.20;;;;;;4995456;28;20044;-78
2022/05/03 09:39:23;;;;;;;5.45;2.10;;;20.40;55.80;;;;;;4992319;28;20109;-78
2022/05/03 09:42:12;;;;;;;3.85;2.20;;;20.50;53.50;;;;;;4990951;28;20022;-78
2022/05/03 09:44:50;;;;;;;5.28;2.20;;;20.90;53.00;;;;;;4975326;28;20394;-78
2022/05/03 09:47:15;;;;;;;2.42;2.22;;;20.80;51.40;;;;;;5010803;28;20497;-78
2022/05/03 09:49:41;;;;;;;1.67;1.50;;;20.80;51.00;;;;;;4990099;28;20026;-78
2022/05/03 09:52:09;;;;;;;2.13;1.80;;;20.80;53.90;;;;;;4991136;28;20046;-79
2022/05/03 09:54:50;;;;;;;3.28;2.22;;;20.80;54.40;;;;;;5002901;28;20141;-78
2022/05/03 09:57:23;;;;;;;5.75;2.63;;;21.00;51.90;;;;;;4984962;28;20098;-79
2022/05/03 09:59:52;;;;;;;5.35;3.05;;;21.20;52.10;;;;;;4989980;28;20477;-79
2022/05/03 10:02:20;;;;;;;7.03;2.58;;;21.30;50.50;;;;;;4996101;28;20480;-79
2022/05/03 10:04:46;;;;;;;2.97;2.58;;;21.30;49.60;;;;;;4984743;28;20432;-79
2022/05/03 10:07:12;;;;;;;5.85;2.50;;;21.40;50.50;;;;;;4990946;28;20459;-79
2022/05/03 10:09:38;;;;;;;4.97;3.28;;;21.50;51.30;;;;;;4991692;28;20084;-79
2022/05/03 10:12:04;;;;;;;5.75;3.08;;;21.60;49.30;;;;;;4976596;28;20065;-80
2022/05/03 10:14:29;;;;;;;4.82;2.97;;;21.80;48.80;;;;;;4988426;28;20065;-79
2022/05/03 10:22:24;;;;;;;5.20;3.38;;;21.70;50.10;;;;;;4994714;28;20036;-80
2022/05/03 10:24:56;;;;;;;3.88;2.70;;;21.90;49.90;;;;;;4991644;28;20513;-80
2022/05/03 10:27:27;;;;;;;4.97;3.00;;;22.00;49.10;;;;;;4969549;28;20550;-79
2022/05/03 10:30:28;;;;;;;2.67;2.47;;;21.90;48.00;;;;;;4993426;28;20393;-80
2022/05/03 10:33:31;;;;;;;4.60;2.70;;;21.90;50.80;;;;;;4979961;28;20052;-80
2022/05/03 10:35:59;;;;;;;4.00;3.15;;;22.00;48.20;;;;;;4994723;28;20045;-80
2022/05/03 10:38:36;;;;;;;6.88;3.25;;;22.30;47.90;;;;;;5008813;28;20117;-80
2022/05/03 10:41:02;;;;;;;6.45;3.03;;;22.30;49.40;;;;;;4984653;28;20149;-80
2022/05/03 10:43:27;;;;;;;4.00;3.08;;;22.20;48.60;;;;;;4991073;28;20135;-80
2022/05/03 10:46:13;;;;;;;5.70;3.65;;;22.30;48.90;;;;;;4979324;28;20105;-80
2022/05/03 10:48:43;;;;;;;4.68;3.55;;;22.50;48.00;;;;;;4993795;28;20402;-80
2022/05/03 10:51:09;;;;;;;4.47;3.63;;;22.60;46.90;;;;;;4978310;28;20039;-80
2022/05/03 10:53:36;;;;;;;3.58;3.00;;;22.70;47.90;;;;;;4975643;28;20034;-80
2022/05/03 10:56:12;;;;;;;6.70;3.00;;;22.70;49.80;;;;;;4982969;28;20537;-80
2022/05/03 10:58:40;;;;;;;5.53;3.15;;;22.90;50.10;;;;;;5006139;28;20439;-80
2022/05/03 11:01:22;;;;;;;3.30;2.95;;;22.90;49.30;;;;;;4984042;28;20479;-80
2022/05/03 11:03:47;;;;;;;9.20;3.65;;;22.90;47.00;;;;;;4972483;28;20041;-80
2022/05/03 11:06:18;;;;;;;6.15;3.30;;;23.20;47.00;;;;;;4992536;28;20038;-81
2022/05/03 11:11:43;;;;;;;6.43;3.55;;;23.20;46.10;;;;;;4991493;28;20042;-81
2022/05/03 11:14:15;;;;;;;3.97;3.53;;;23.40;47.50;;;;;;4993212;28;20046;-81
2022/05/03 11:16:41;;;;;;;3.75;3.38;;;23.50;45.10;;;;;;4995059;28;20052;-81
2022/05/03 11:19:14;;;;;;;8.20;3.90;;;23.40;46.20;;;;;;4976530;28;20569;-81
2022/05/03 11:21:40;;;;;;;6.60;3.50;;;23.50;46.50;;;;;;4981042;28;20057;-81
2022/05/03 11:24:17;;;;;;;5.20;3.33;;;23.60;47.30;;;;;;4993975;28;20058;-81
2022/05/03 11:26:45;;;;;;;5.85;2.78;;;23.70;47.20;;;;;;4989363;28;20033;-81
2022/05/03 11:29:12;;;;;;;4.97;3.92;;;23.80;47.90;;;;;;4988526;28;20104;-81
2022/05/03 11:31:58;;;;;;;7.10;3.20;;;23.90;47.20;;;;;;4987420;28;20556;-81
2022/05/03 11:34:23;;;;;;;2.53;1.95;;;24.00;46.70;;;;;;4979315;28;20038;-81
2022/05/03 11:36:52;;;;;;;3.95;3.33;;;24.90;49.70;;;;;;4988240;28;20323;-81
2022/05/03 11:39:18;;;;;;;5.57;3.83;;;24.60;47.30;;;;;;5010052;28;20034;-80
2022/05/03 11:41:44;;;;;;;3.60;3.25;;;24.50;45.20;;;;;;4984010;28;20026;-80
2022/05/03 11:44:10;;;;;;;6.28;3.55;;;24.50;46.40;;;;;;4997120;28;20076;-80
2022/05/03 11:46:37;;;;;;;4.63;3.28;;;24.50;44.40;;;;;;4997295;28;20041;-80
2022/05/03 11:49:04;;;;;;;6.93;3.13;;;24.80;47.00;;;;;;4991979;28;20030;-80
2022/05/03 11:57:08;;;;;;;5.97;4.55;;;25.30;45.80;;;;;;4998004;28;20584;-80
2022/05/03 11:59:34;;;;;;;5.50;3.60;;;25.30;43.30;;;;;;4995321;28;20057;-80
2022/05/03 12:02:21;;;;;;;3.40;3.10;;;25.50;45.50;;;;;;4980225;28;20468;-80
2022/05/03 12:05:02;;;;;;;3.40;2.78;;;25.70;45.90;;;;;;4992147;28;20026;-79
2022/05/03 12:07:29;;;;;;;6.47;3.53;;;25.40;46.80;;;;;;5002677;28;20064;-80
2022/05/03 12:09:55;;;;;;;5.47;3.50;;;25.60;44.10;;;;;;4996821;28;20049;-79
2022/05/03 12:12:42;;;;;;;7.10;2.42;;;25.60;45.20;;;;;;5003134;28;20084;-79
2022/05/03 12:15:21;;;;;;;5.18;3.05;;;25.50;45.00;;;;;;4976527;28;20337;-80
2022/05/03 12:17:55;;;;;;;3.58;2.90;;;25.50;44.50;;;;;;4989089;28;20070;-79
2022/05/03 12:20:21;;;;;;;3.63;2.38;;;25.70;44.90;;;;;;4979510;28;20057;-79
2022/05/03 12:23:17;;;;;;;2.90;2.53;;;25.70;45.30;;;;;;4995542;28;20464;-79
2022/05/03 12:25:44;;;;;;;2.88;2.53;;;26.50;46.40;;;;;;5008971;28;20037;-79
2022/05/03 12:28:10;;;;;;;8.00;3.40;;;26.80;45.20;;;;;;5000282;28;22491;-79
2022/05/03 12:30:36;;;;;;;7.30;3.50;;;26.50;45.00;;;;;;4996953;28;20068;-79
2022/05/03 12:33:05;;;;;;;8.05;3.28;;;26.40;43.00;;;;;;4980717;28;20094;-79
2022/05/03 12:35:32;;;;;;;5.32;4.13;;;26.30;41.80;;;;;;4988467;28;20046;-79
2022/05/03 12:37:58;;;;;;;7.07;2.75;;;26.30;39.90;;;;;;4991469;28;20058;-78
2022/05/03 12:40:25;;;;;;;3.63;3.25;;;26.30;42.00;;;;;;4982516;28;20046;-79
2022/05/03 12:42:51;;;;;;;4.28;2.22;;;26.40;43.00;;;;;;4994858;28;20026;-79
2022/05/03 12:45:19;;;;;;;2.47;2.28;;;26.50;43.40;;;;;;4993377;28;20501;-77
2022/05/03 12:47:45;;;;;;;4.90;3.45;;;27.00;43.30;;;;;;4995362;28;20033;-77
2022/05/03 12:50:11;;;;;;;6.28;4.18;;;26.80;42.20;;;;;;4978241;28;20026;-77
2022/05/03 12:52:36;;;;;;;2.42;2.08;;;26.90;43.30;;;;;;4994813;28;20466;-77
2022/05/03 12:55:02;;;;;;;2.72;2.42;;;27.20;43.90;;;;;;4987481;28;20049;-77
2022/05/03 13:00:14;;;;;;;7.22;3.55;;;27.80;41.30;;;;;;4995120;28;20036;-77
2022/05/03 13:02:40;;;;;;;2.83;2.50;;;27.40;41.70;;;;;;4993851;28;20473;-78
2022/05/03 13:05:06;;;;;;;6.68;4.40;;;27.60;42.60;;;;;;4981950;28;20120;-78
2022/05/03 13:07:31;;;;;;;3.58;3.00;;;27.50;41.00;;;;;;4996358;28;20498;-78
2022/05/03 13:09:57;;;;;;;5.88;3.72;;;27.40;40.90;;;;;;4995701;28;20026;-78
2022/05/03 13:12:22;;;;;;;6.85;4.13;;;27.40;40.40;;;;;;4983046;28;20089;-78
2022/05/03 13:14:48;;;;;;;11.77;5.10;;;27.50;40.60;;;;;;4977798;28;20034;-78
2022/05/03 13:17:14;;;;;;;3.20;2.95;;;27.50;39.40;;;;;;4990638;28;20037;-78
2022/05/03 13:19:39;;;;;;;7.97;4.22;;;27.40;40.20;;;;;;5009437;28;20026;-78
2022/05/03 13:22:05;;;;;;;7.10;3.53;;;27.40;40.60;;;;;;4986326;28;20107;-78
2022/05/03 13:24:31;;;;;;;6.40;4.40;;;27.80;41.90;;;;;;4992801;28;20125;-78
2022/05/03 13:26:57;;;;;;;4.72;3.88;;;27.90;40.40;;;;;;4991234;28;20022;-78
2022/05/03 13:29:23;;;;;;;4.97;4.13;;;28.00;40.80;;;;;;4978325;28;20026;-78
2022/05/03 13:31:49;;;;;;;4.03;3.05;;;27.80;39.10;;;;;;5004296;28;20018;-77
2022/05/03 13:34:14;;;;;;;6.80;4.07;;;27.80;40.80;;;;;;4991518;28;20034;-77
2022/05/03 13:42:09;;;;;;;6.13;4.68;;;27.70;38.80;;;;;;4993710;28;20053;-77
2022/05/03 13:44:34;;;;;;;6.80;4.97;;;27.60;37.70;;;;;;4980502;28;20038;-78